sensor_id;sensor_type;location;lat;lon;timestamp;pressure;altitude;pressure_sealevel;temperature;humidity
23172;BME280;11754;42.664;23.594;2023-04-05T00:01:12;94910.31;;;1.33;77.21
23172;BME280;11754;42.664;23.594;2023-04-05T00:03:37;94918.59;;;1.38;77.16
23172;BME280;11754;42.664;23.594;2023-04-05T00:06:04;94906.28;;;1.40;77.38
23172;BME280;11754;42.664;23.594;2023-04-05T00:08:30;94920.94;;;1.41;77.25
23172;BME280;11754;42.664;23.594;2023-04-05T00:10:56;94908.06;;;1.39;77.11
23172;BME280;11754;42.664;23.594;2023-04-05T00:13:22;94911.22;;;1.43;76.93
23172;BME280;11754;42.664;23.594;2023-04-05T00:15:48;94916.47;;;1.32;77.29
23172;BME280;11754;42.664;23.594;2023-04-05T00:18:14;94912.81;;;1.34;77.48
23172;BME280;11754;42.664;23.594;2023-04-05T00:20:49;94914.06;;;1.40;77.08
23172;BME280;11754;42.664;23.594;2023-04-05T00:23:15;94914.84;;;1.31;77.34
23172;BME280;11754;42.664;23.594;2023-04-05T00:25:43;94916.91;;;1.37;77.07
23172;BME280;11754;42.664;23.594;2023-04-05T00:28:08;94917.63;;;1.39;77.06
23172;BME280;11754;42.664;23.594;2023-04-05T00:30:34;94915.66;;;1.31;76.72
23172;BME280;11754;42.664;23.594;2023-04-05T00:33:00;94907.97;;;1.30;76.79
23172;BME280;11754;42.664;23.594;2023-04-05T00:35:28;94910.13;;;1.25;77.16
23172;BME280;11754;42.664;23.594;2023-04-05T00:37:55;94923.81;;;1.27;77.02
23172;BME280;11754;42.664;23.594;2023-04-05T00:40:21;94932.06;;;1.32;77.25
23172;BME280;11754;42.664;23.594;2023-04-05T00:42:47;94933.50;;;1.25;77.28
23172;BME280;11754;42.664;23.594;2023-04-05T00:45:12;94924.66;;;1.27;76.79
23172;BME280;11754;42.664;23.594;2023-04-05T00:47:40;94933.63;;;1.23;77.32
23172;BME280;11754;42.664;23.594;2023-04-05T00:50:06;94920.31;;;1.16;77.38
23172;BME280;11754;42.664;23.594;2023-04-05T00:52:34;94928.28;;;1.36;77.23
23172;BME280;11754;42.664;23.594;2023-04-05T00:54:59;94927.19;;;1.38;76.64
23172;BME280;11754;42.664;23.594;2023-04-05T00:57:25;94934.88;;;1.40;76.50
23172;BME280;11754;42.664;23.594;2023-04-05T00:59:50;94927.78;;;1.42;76.16
23172;BME280;11754;42.664;23.594;2023-04-05T01:02:25;94931.53;;;1.49;76.55
23172;BME280;11754;42.664;23.594;2023-04-05T01:04:58;94929.66;;;1.40;76.32
23172;BME280;11754;42.664;23.594;2023-04-05T01:10:21;94930.75;;;1.37;76.33
23172;BME280;11754;42.664;23.594;2023-04-05T01:12:46;94943.63;;;1.39;76.01
23172;BME280;11754;42.664;23.594;2023-04-05T01:15:14;94923.81;;;1.27;76.13
23172;BME280;11754;42.664;23.594;2023-04-05T01:17:40;94933.47;;;1.36;76.14
23172;BME280;11754;42.664;23.594;2023-04-05T01:20:09;94934.53;;;1.33;76.52
23172;BME280;11754;42.664;23.594;2023-04-05T01:30:33;94934.41;;;1.35;76.47
23172;BME280;11754;42.664;23.594;2023-04-05T01:33:17;94949.88;;;1.36;76.32
23172;BME280;11754;42.664;23.594;2023-04-05T01:38:16;94948.69;;;1.40;76.50
23172;BME280;11754;42.664;23.594;2023-04-05T01:40:42;94948.31;;;1.45;76.52
23172;BME280;11754;42.664;23.594;2023-04-05T01:43:17;94939.13;;;1.30;76.07
23172;BME280;11754;42.664;23.594;2023-04-05T01:45:43;94944.09;;;1.33;76.86
23172;BME280;11754;42.664;23.594;2023-04-05T01:48:09;94935.38;;;1.23;76.48
23172;BME280;11754;42.664;23.594;2023-04-05T01:50:35;94946.00;;;1.31;76.68
23172;BME280;11754;42.664;23.594;2023-04-05T01:53:00;94937.50;;;1.29;76.59
23172;BME280;11754;42.664;23.594;2023-04-05T01:55:26;94954.50;;;1.33;76.19
23172;BME280;11754;42.664;23.594;2023-04-05T01:57:53;94962.22;;;1.23;76.43
23172;BME280;11754;42.664;23.594;2023-04-05T02:00:22;94946.50;;;1.25;76.58
23172;BME280;11754;42.664;23.594;2023-04-05T02:02:47;94960.19;;;1.27;76.84
23172;BME280;11754;42.664;23.594;2023-04-05T02:05:13;94951.34;;;1.18;76.53
23172;BME280;11754;42.664;23.594;2023-04-05T02:07:38;94965.13;;;1.30;76.96
23172;BME280;11754;42.664;23.594;2023-04-05T02:10:04;94954.50;;;1.33;76.32
23172;BME280;11754;42.664;23.594;2023-04-05T02:12:30;94961.84;;;1.28;76.30
23172;BME280;11754;42.664;23.594;2023-04-05T02:14:56;94952.16;;;1.18;76.59
23172;BME280;11754;42.664;23.594;2023-04-05T02:17:22;94952.69;;;1.12;76.90
23172;BME280;11754;42.664;23.594;2023-04-05T02:19:48;94960.91;;;1.17;77.04
23172;BME280;11754;42.664;23.594;2023-04-05T02:22:14;94961.38;;;1.11;76.83
23172;BME280;11754;42.664;23.594;2023-04-05T02:24:39;94957.34;;;1.18;77.06
23172;BME280;11754;42.664;23.594;2023-04-05T02:27:05;94945.81;;;1.11;76.75
23172;BME280;11754;42.664;23.594;2023-04-05T02:29:32;94945.00;;;1.11;76.89
23172;BME280;11754;42.664;23.594;2023-04-05T02:31:58;94956.91;;;1.13;77.29
23172;BME280;11754;42.664;23.594;2023-04-05T02:34:24;94958.53;;;1.26;76.99
23172;BME280;11754;42.664;23.594;2023-04-05T02:36:50;94964.22;;;1.19;76.65
23172;BME280;11754;42.664;23.594;2023-04-05T02:39:15;94960.19;;;1.27;76.72
23172;BME280;11754;42.664;23.594;2023-04-05T02:41:41;94962.31;;;1.22;76.64
23172;BME280;11754;42.664;23.594;2023-04-05T02:44:06;94972.00;;;1.31;76.46
23172;BME280;11754;42.664;23.594;2023-04-05T02:46:32;94962.78;;;1.27;76.41
23172;BME280;11754;42.664;23.594;2023-04-05T02:48:57;94951.09;;;1.21;76.32
23172;BME280;11754;42.664;23.594;2023-04-05T02:51:22;94961.13;;;1.26;76.51
23172;BME280;11754;42.664;23.594;2023-04-05T02:53:48;94957.69;;;1.25;75.92
23172;BME280;11754;42.664;23.594;2023-04-05T02:56:13;94951.69;;;1.25;76.19
23172;BME280;11754;42.664;23.594;2023-04-05T02:58:39;94956.53;;;1.18;76.66
23172;BME280;11754;42.664;23.594;2023-04-05T03:01:05;94947.56;;;1.22;76.50
23172;BME280;11754;42.664;23.594;2023-04-05T03:03:33;94948.38;;;1.23;76.54
23172;BME280;11754;42.664;23.594;2023-04-05T03:06:01;94970.31;;;1.41;76.10
23172;BME280;11754;42.664;23.594;2023-04-05T03:08:43;94959.69;;;1.33;75.52
23172;BME280;11754;42.664;23.594;2023-04-05T03:11:09;94957.22;;;1.31;75.80
23172;BME280;11754;42.664;23.594;2023-04-05T03:13:35;94967.72;;;1.41;75.90
23172;BME280;11754;42.664;23.594;2023-04-05T03:16:04;94967.91;;;1.49;75.38
23172;BME280;11754;42.664;23.594;2023-04-05T03:18:29;94968.41;;;1.43;75.53
23172;BME280;11754;42.664;23.594;2023-04-05T03:20:56;94965.56;;;1.46;75.22
23172;BME280;11754;42.664;23.594;2023-04-05T03:23:29;94967.34;;;1.46;75.10
23172;BME280;11754;42.664;23.594;2023-04-05T03:26:04;94959.44;;;1.36;75.14
23172;BME280;11754;42.664;23.594;2023-04-05T03:28:30;94957.56;;;1.38;75.09
23172;BME280;11754;42.664;23.594;2023-04-05T03:30:59;94951.06;;;1.32;74.83
23172;BME280;11754;42.664;23.594;2023-04-05T03:33:25;94946.28;;;1.16;75.18
23172;BME280;11754;42.664;23.594;2023-04-05T03:35:50;94952.84;;;1.32;75.59
23172;BME280;11754;42.664;23.594;2023-04-05T03:38:16;94951.22;;;1.31;75.68
23172;BME280;11754;42.664;23.594;2023-04-05T03:40:41;94955.69;;;1.29;75.98
23172;BME280;11754;42.664;23.594;2023-04-05T03:43:07;94958.38;;;1.38;75.61
23172;BME280;11754;42.664;23.594;2023-04-05T03:45:32;94958.53;;;1.26;74.95
23172;BME280;11754;42.664;23.594;2023-04-05T03:47:58;94959.09;;;1.29;75.51
23172;BME280;11754;42.664;23.594;2023-04-05T03:50:24;94962.91;;;1.25;75.48
23172;BME280;11754;42.664;23.594;2023-04-05T03:52:51;94972.00;;;1.31;75.32
23172;BME280;11754;42.664;23.594;2023-04-05T03:55:16;94965.63;;;1.24;75.15
23172;BME280;11754;42.664;23.594;2023-04-05T03:57:42;94967.84;;;1.28;75.08
23172;BME280;11754;42.664;23.594;2023-04-05T04:00:08;94972.22;;;1.28;75.14
23172;BME280;11754;42.664;23.594;2023-04-05T04:02:46;94973.44;;;1.12;75.71
23172;BME280;11754;42.664;23.594;2023-04-05T04:05:13;94979.09;;;1.17;75.66
23172;BME280;11754;42.664;23.594;2023-04-05T04:07:39;94980.63;;;1.20;76.11
23172;BME280;11754;42.664;23.594;2023-04-05T04:10:06;94971.31;;;1.17;75.47
23172;BME280;11754;42.664;23.594;2023-04-05T04:12:32;94979.53;;;1.23;75.09
23172;BME280;11754;42.664;23.594;2023-04-05T04:14:57;94982.38;;;1.31;75.47
23172;BME280;11754;42.664;23.594;2023-04-05T04:17:31;94990.38;;;1.39;75.58
23172;BME280;11754;42.664;23.594;2023-04-05T04:19:57;94974.56;;;1.42;75.59
23172;BME280;11754;42.664;23.594;2023-04-05T04:22:23;94987.31;;;1.45;76.06
23172;BME280;11754;42.664;23.594;2023-04-05T04:24:54;94981.41;;;1.43;76.52
23172;BME280;11754;42.664;23.594;2023-04-05T04:27:19;94977.19;;;1.31;77.57
23172;BME280;11754;42.664;23.594;2023-04-05T04:29:48;94991.53;;;1.46;78.16
23172;BME280;11754;42.664;23.594;2023-04-05T04:32:15;94985.63;;;1.44;77.79
23172;BME280;11754;42.664;23.594;2023-04-05T04:34:41;94981.88;;;1.37;78.05
23172;BME280;11754;42.664;23.594;2023-04-05T04:37:18;94981.72;;;1.50;77.54
23172;BME280;11754;42.664;23.594;2023-04-05T04:39:47;95001.13;;;1.46;78.19
23172;BME280;11754;42.664;23.594;2023-04-05T04:42:14;95000.66;;;1.52;78.39
23172;BME280;11754;42.664;23.594;2023-04-05T04:44:53;94990.63;;;1.36;78.14
23172;BME280;11754;42.664;23.594;2023-04-05T04:47:19;94992.50;;;1.45;78.37
23172;BME280;11754;42.664;23.594;2023-04-05T04:49:45;95001.47;;;1.52;78.59
23172;BME280;11754;42.664;23.594;2023-04-05T04:52:11;95001.69;;;1.49;78.27
23172;BME280;11754;42.664;23.594;2023-04-05T04:54:36;95005.50;;;1.45;78.22
23172;BME280;11754;42.664;23.594;2023-04-05T04:57:02;95007.38;;;1.43;78.44
23172;BME280;11754;42.664;23.594;2023-04-05T04:59:28;95007.63;;;1.40;79.05
23172;BME280;11754;42.664;23.594;2023-04-05T05:01:53;95012.34;;;1.46;79.47
23172;BME280;11754;42.664;23.594;2023-04-05T05:04:19;95011.47;;;1.57;79.11
23172;BME280;11754;42.664;23.594;2023-04-05T05:06:44;95005.25;;;1.48;78.83
23172;BME280;11754;42.664;23.594;2023-04-05T05:09:10;95007.59;;;1.62;79.04
23172;BME280;11754;42.664;23.594;2023-04-05T05:11:35;95009.47;;;1.60;79.11
23172;BME280;11754;42.664;23.594;2023-04-05T05:14:01;95015.59;;;1.71;78.85
23172;BME280;11754;42.664;23.594;2023-04-05T05:16:26;95015.59;;;1.71;78.76
23172;BME280;11754;42.664;23.594;2023-04-05T05:18:53;95019.28;;;1.89;78.32
23172;BME280;11754;42.664;23.594;2023-04-05T05:21:18;95014.63;;;2.04;77.29
23172;BME280;11754;42.664;23.594;2023-04-05T05:23:44;95019.19;;;2.11;76.76
23172;BME280;11754;42.664;23.594;2023-04-05T05:26:10;95011.31;;;2.23;76.04
23172;BME280;11754;42.664;23.594;2023-04-05T05:28:37;95017.66;;;2.30;75.06
23172;BME280;11754;42.664;23.594;2023-04-05T05:31:03;95015.53;;;2.35;74.21
23172;BME280;11754;42.664;23.594;2023-04-05T05:33:29;95023.34;;;2.35;73.74
23172;BME280;11754;42.664;23.594;2023-04-05T05:35:54;95012.31;;;2.52;73.26
23172;BME280;11754;42.664;23.594;2023-04-05T05:38:20;95019.69;;;2.47;72.05
23172;BME280;11754;42.664;23.594;2023-04-05T05:40:46;95021.88;;;2.42;72.65
23172;BME280;11754;42.664;23.594;2023-04-05T05:43:11;95020.53;;;2.27;72.28
23172;BME280;11754;42.664;23.594;2023-04-05T05:45:37;95020.44;;;2.38;71.66
23172;BME280;11754;42.664;23.594;2023-04-05T05:48:02;95017.75;;;2.39;71.10
23172;BME280;11754;42.664;23.594;2023-04-05T05:50:28;95025.63;;;2.49;71.30
23172;BME280;11754;42.664;23.594;2023-04-05T05:52:57;95020.09;;;2.63;70.96
23172;BME280;11754;42.664;23.594;2023-04-05T05:55:23;95017.00;;;2.79;70.79
23172;BME280;11754;42.664;23.594;2023-04-05T05:57:48;95016.75;;;2.92;70.26
23172;BME280;11754;42.664;23.594;2023-04-05T06:00:14;95018.84;;;2.88;69.90
23172;BME280;11754;42.664;23.594;2023-04-05T06:02:40;95023.56;;;3.04;70.18
23172;BME280;11754;42.664;23.594;2023-04-05T06:05:05;95016.19;;;2.79;69.61
23172;BME280;11754;42.664;23.594;2023-04-05T06:07:35;95017.47;;;2.94;69.34
23172;BME280;11754;42.664;23.594;2023-04-05T06:10:00;95007.88;;;2.95;69.39
23172;BME280;11754;42.664;23.594;2023-04-05T06:12:26;95020.63;;;3.28;68.66
23172;BME280;11754;42.664;23.594;2023-04-05T06:14:51;95029.41;;;3.37;67.54
23172;BME280;11754;42.664;23.594;2023-04-05T06:17:17;95032.41;;;3.23;65.74
23172;BME280;11754;42.664;23.594;2023-04-05T06:19:42;95031.56;;;3.22;66.26
23172;BME280;11754;42.664;23.594;2023-04-05T06:22:08;95034.09;;;3.43;64.95
23172;BME280;11754;42.664;23.594;2023-04-05T06:24:34;95023.59;;;3.24;63.87
23172;BME280;11754;42.664;23.594;2023-04-05T06:26:59;95035.69;;;3.25;64.88
23172;BME280;11754;42.664;23.594;2023-04-05T06:29:25;95036.81;;;3.32;64.40
23172;BME280;11754;42.664;23.594;2023-04-05T06:31:51;95039.84;;;3.37;64.63
23172;BME280;11754;42.664;23.594;2023-04-05T06:34:17;95026.56;;;3.40;64.86
23172;BME280;11754;42.664;23.594;2023-04-05T06:36:42;95033.56;;;3.49;63.91
23172;BME280;11754;42.664;23.594;2023-04-05T06:39:08;95041.84;;;3.74;64.28
23172;BME280;11754;42.664;23.594;2023-04-05T06:41:33;95044.91;;;4.08;62.98
23172;BME280;11754;42.664;23.594;2023-04-05T06:43:58;95053.16;;;4.23;61.11
23172;BME280;11754;42.664;23.594;2023-04-05T06:46:27;95048.47;;;4.07;60.24
23172;BME280;11754;42.664;23.594;2023-04-05T06:48:52;95059.19;;;3.94;60.87
23172;BME280;11754;42.664;23.594;2023-04-05T06:51:18;95067.41;;;3.90;60.88
23172;BME280;11754;42.664;23.594;2023-04-05T06:53:44;95066.28;;;3.73;60.88
23172;BME280;11754;42.664;23.594;2023-04-05T06:56:09;95057.78;;;3.80;61.34
23172;BME280;11754;42.664;23.594;2023-04-05T06:58:35;95078.63;;;3.71;61.43
23172;BME280;11754;42.664;23.594;2023-04-05T07:01:01;95069.88;;;3.91;61.34
23172;BME280;11754;42.664;23.594;2023-04-05T07:03:27;95066.03;;;3.76;60.61
23172;BME280;11754;42.664;23.594;2023-04-05T07:05:55;95071.78;;;3.89;60.78
23172;BME280;11754;42.664;23.594;2023-04-05T07:08:22;95075.38;;;3.98;59.78
23172;BME280;11754;42.664;23.594;2023-04-05T07:10:48;95078.13;;;3.96;60.03
23172;BME280;11754;42.664;23.594;2023-04-05T07:13:15;95075.13;;;4.20;59.41
23172;BME280;11754;42.664;23.594;2023-04-05T07:15:42;95070.16;;;4.46;58.44
23172;BME280;11754;42.664;23.594;2023-04-05T07:18:08;95076.47;;;4.53;59.05
23172;BME280;11754;42.664;23.594;2023-04-05T07:20:33;95070.28;;;4.74;59.21
23172;BME280;11754;42.664;23.594;2023-04-05T07:22:59;95092.53;;;4.68;57.03
23172;BME280;11754;42.664;23.594;2023-04-05T07:25:24;95079.75;;;4.85;57.85
23172;BME280;11754;42.664;23.594;2023-04-05T07:27:50;95087.97;;;4.99;57.59
23172;BME280;11754;42.664;23.594;2023-04-05T07:30:17;95084.97;;;4.94;58.04
23172;BME280;11754;42.664;23.594;2023-04-05T07:32:42;95083.59;;;4.80;57.18
23172;BME280;11754;42.664;23.594;2023-04-05T07:35:08;95094.84;;;5.00;57.63
23172;BME280;11754;42.664;23.594;2023-04-05T07:37:33;95089.03;;;5.44;57.08
23172;BME280;11754;42.664;23.594;2023-04-05T07:40:00;95091.88;;;5.60;55.42
23172;BME280;11754;42.664;23.594;2023-04-05T07:42:25;95098.13;;;5.77;54.84
23172;BME280;11754;42.664;23.594;2023-04-05T07:44:52;95095.13;;;5.72;54.42
23172;BME280;11754;42.664;23.594;2023-04-05T07:47:18;95092.25;;;5.65;53.88
23172;BME280;11754;42.664;23.594;2023-04-05T07:49:43;95101.44;;;5.69;54.50
23172;BME280;11754;42.664;23.594;2023-04-05T07:52:09;95103.41;;;5.30;55.00
23172;BME280;11754;42.664;23.594;2023-04-05T07:54:35;95104.66;;;5.63;55.74
23172;BME280;11754;42.664;23.594;2023-04-05T07:57:15;95100.56;;;5.88;54.46
23172;BME280;11754;42.664;23.594;2023-04-05T07:59:40;95114.03;;;5.93;54.15
23172;BME280;11754;42.664;23.594;2023-04-05T08:02:06;95114.13;;;5.74;54.65
23172;BME280;11754;42.664;23.594;2023-04-05T08:04:31;95117.03;;;5.71;53.44
23172;BME280;11754;42.664;23.594;2023-04-05T08:06:57;95111.78;;;5.98;52.78
23172;BME280;11754;42.664;23.594;2023-04-05T08:09:22;95127.69;;;6.15;52.29
23172;BME280;11754;42.664;23.594;2023-04-05T08:11:48;95120.44;;;5.81;52.12
23172;BME280;11754;42.664;23.594;2023-04-05T08:14:13;95122.16;;;5.63;53.73
23172;BME280;11754;42.664;23.594;2023-04-05T08:16:38;95128.38;;;5.89;53.94
23172;BME280;11754;42.664;23.594;2023-04-05T08:19:04;95125.91;;;6.69;51.14
23172;BME280;11754;42.664;23.594;2023-04-05T08:21:29;95121.91;;;7.01;49.00
23172;BME280;11754;42.664;23.594;2023-04-05T08:23:56;95130.09;;;6.97;49.52
23172;BME280;11754;42.664;23.594;2023-04-05T08:26:22;95129.78;;;7.01;49.22
23172;BME280;11754;42.664;23.594;2023-04-05T08:28:48;95133.91;;;7.55;50.13
23172;BME280;11754;42.664;23.594;2023-04-05T08:31:13;95131.78;;;7.93;47.44
23172;BME280;11754;42.664;23.594;2023-04-05T08:33:39;95130.81;;;8.45;45.85
23172;BME280;11754;42.664;23.594;2023-04-05T08:36:08;95123.63;;;8.87;45.93
23172;BME280;11754;42.664;23.594;2023-04-05T08:38:33;95121.31;;;9.17;44.56
23172;BME280;11754;42.664;23.594;2023-04-05T08:41:20;95128.38;;;9.25;43.16
23172;BME280;11754;42.664;23.594;2023-04-05T08:43:54;95135.28;;;9.26;44.27
23172;BME280;11754;42.664;23.594;2023-04-05T08:46:24;95126.50;;;9.58;43.03
23172;BME280;11754;42.664;23.594;2023-04-05T08:48:50;95124.41;;;9.45;41.91
23172;BME280;11754;42.664;23.594;2023-04-05T08:51:22;95135.56;;;10.11;42.18
23172;BME280;11754;42.664;23.594;2023-04-05T08:53:48;95125.59;;;10.29;42.19
23172;BME280;11754;42.664;23.594;2023-04-05T08:56:15;95140.06;;;9.14;42.29
23172;BME280;11754;42.664;23.594;2023-04-05T08:58:57;95135.44;;;8.83;45.69
23172;BME280;11754;42.664;23.594;2023-04-05T09:01:26;95146.50;;;9.20;43.00
23172;BME280;11754;42.664;23.594;2023-04-05T09:03:53;95149.88;;;9.61;41.92
23172;BME280;11754;42.664;23.594;2023-04-05T09:06:21;95139.56;;;9.91;41.52
23172;BME280;11754;42.664;23.594;2023-04-05T09:08:52;95144.59;;;9.61;41.56
23172;BME280;11754;42.664;23.594;2023-04-05T09:11:19;95140.41;;;9.03;43.17
23172;BME280;11754;42.664;23.594;2023-04-05T09:13:44;95148.91;;;9.54;42.70
23172;BME280;11754;42.664;23.594;2023-04-05T09:16:10;95139.56;;;9.27;42.73
23172;BME280;11754;42.664;23.594;2023-04-05T09:18:45;95135.25;;;9.34;43.22
23172;BME280;11754;42.664;23.594;2023-04-05T09:21:11;95149.84;;;9.69;42.05
23172;BME280;11754;42.664;23.594;2023-04-05T09:23:50;95143.75;;;10.16;41.21
23172;BME280;11754;42.664;23.594;2023-04-05T09:26:19;95137.22;;;10.04;40.88
23172;BME280;11754;42.664;23.594;2023-04-05T09:28:47;95150.19;;;9.74;41.12
23172;BME280;11754;42.664;23.594;2023-04-05T09:31:39;95146.66;;;10.38;40.33
23172;BME280;11754;42.664;23.594;2023-04-05T09:34:05;95142.97;;;10.47;40.59
23172;BME280;11754;42.664;23.594;2023-04-05T09:36:51;95139.66;;;10.99;39.51
23172;BME280;11754;42.664;23.594;2023-04-05T09:39:16;95131.16;;;10.34;39.02
23172;BME280;11754;42.664;23.594;2023-04-05T09:42:13;95132.47;;;9.19;41.33
23172;BME280;11754;42.664;23.594;2023-04-05T09:44:58;95140.16;;;9.61;42.50
23172;BME280;11754;42.664;23.594;2023-04-05T09:47:30;95141.22;;;9.92;40.49
23172;BME280;11754;42.664;23.594;2023-04-05T09:49:57;95141.56;;;9.80;41.91
23172;BME280;11754;42.664;23.594;2023-04-05T09:52:28;95146.50;;;9.83;41.01
23172;BME280;11754;42.664;23.594;2023-04-05T09:54:56;95140.56;;;10.60;39.36
23172;BME280;11754;42.664;23.594;2023-04-05T09:57:26;95129.25;;;11.20;39.13
23172;BME280;11754;42.664;23.594;2023-04-05T09:59:55;95133.84;;;11.41;37.51
23172;BME280;11754;42.664;23.594;2023-04-05T10:02:21;95138.34;;;12.30;37.21
23172;BME280;11754;42.664;23.594;2023-04-05T10:04:47;95130.00;;;12.11;36.69
23172;BME280;11754;42.664;23.594;2023-04-05T10:07:15;95131.59;;;11.83;37.87
23172;BME280;11754;42.664;23.594;2023-04-05T10:09:44;95128.25;;;11.74;37.64
23172;BME280;11754;42.664;23.594;2023-04-05T10:12:23;95124.69;;;12.11;37.98
23172;BME280;11754;42.664;23.594;2023-04-05T10:14:49;95125.69;;;12.25;37.40
23172;BME280;11754;42.664;23.594;2023-04-05T10:17:22;95127.81;;;12.00;36.28
23172;BME280;11754;42.664;23.594;2023-04-05T10:20:09;95123.06;;;11.81;36.60
23172;BME280;11754;42.664;23.594;2023-04-05T10:22:40;95111.75;;;11.72;37.06
23172;BME280;11754;42.664;23.594;2023-04-05T10:28:10;95108.38;;;14.14;34.39
23172;BME280;11754;42.664;23.594;2023-04-05T10:30:40;95100.88;;;14.79;32.20
23172;BME280;11754;42.664;23.594;2023-04-05T10:38:24;95103.47;;;17.58;28.13
23172;BME280;11754;42.664;23.594;2023-04-05T10:40:53;95101.06;;;18.67;26.24
23172;BME280;11754;42.664;23.594;2023-04-05T10:43:22;95116.19;;;17.06;27.64
23172;BME280;11754;42.664;23.594;2023-04-05T10:45:52;95118.06;;;16.54;29.03
23172;BME280;11754;42.664;23.594;2023-04-05T10:48:28;95120.25;;;14.73;30.67
23172;BME280;11754;42.664;23.594;2023-04-05T10:50:56;95113.78;;;15.08;31.30
23172;BME280;11754;42.664;23.594;2023-04-05T10:53:24;95111.72;;;15.50;30.78
23172;BME280;11754;42.664;23.594;2023-04-05T10:55:50;95104.31;;;16.05;29.88
23172;BME280;11754;42.664;23.594;2023-04-05T10:58:16;95104.78;;;18.66;27.67
23172;BME280;11754;42.664;23.594;2023-04-05T11:00:45;95087.59;;;23.19;23.23
23172;BME280;11754;42.664;23.594;2023-04-05T11:03:41;95082.28;;;25.09;19.87
23172;BME280;11754;42.664;23.594;2023-04-05T11:08:50;95090.09;;;25.01;19.07
23172;BME280;11754;42.664;23.594;2023-04-05T11:11:17;95094.28;;;24.66;19.66
23172;BME280;11754;42.664;23.594;2023-04-05T11:13:56;95106.22;;;23.58;20.27
23172;BME280;11754;42.664;23.594;2023-04-05T11:16:38;95100.97;;;22.04;21.20
23172;BME280;11754;42.664;23.594;2023-04-05T11:19:03;95102.72;;;20.86;21.98
23172;BME280;11754;42.664;23.594;2023-04-05T11:21:29;95096.09;;;20.88;22.92
23172;BME280;11754;42.664;23.594;2023-04-05T11:24:09;95097.50;;;21.08;22.34
23172;BME280;11754;42.664;23.594;2023-04-05T11:29:05;95097.97;;;24.02;19.70
23172;BME280;11754;42.664;23.594;2023-04-05T11:31:30;95088.28;;;25.27;18.93
23172;BME280;11754;42.664;23.594;2023-04-05T11:41:44;95091.38;;;28.77;15.42
23172;BME280;11754;42.664;23.594;2023-04-05T11:44:14;95077.25;;;30.54;14.53
23172;BME280;11754;42.664;23.594;2023-04-05T11:46:44;95083.50;;;30.96;14.26
23172;BME280;11754;42.664;23.594;2023-04-05T11:49:11;95070.38;;;32.15;12.74
23172;BME280;11754;42.664;23.594;2023-04-05T11:51:39;95080.03;;;31.76;13.55
23172;BME280;11754;42.664;23.594;2023-04-05T11:54:07;95080.84;;;31.77;13.57
23172;BME280;11754;42.664;23.594;2023-04-05T11:56:32;95075.34;;;31.68;13.08
23172;BME280;11754;42.664;23.594;2023-04-05T11:58:58;95083.44;;;31.37;13.10
23172;BME280;11754;42.664;23.594;2023-04-05T12:01:24;95079.66;;;30.42;13.89
23172;BME280;11754;42.664;23.594;2023-04-05T12:03:54;95075.56;;;31.80;13.11
23172;BME280;11754;42.664;23.594;2023-04-05T12:06:24;95077.69;;;31.61;13.42
23172;BME280;11754;42.664;23.594;2023-04-05T12:08:52;95071.13;;;31.85;12.63
23172;BME280;11754;42.664;23.594;2023-04-05T12:11:27;95078.38;;;29.55;14.88
23172;BME280;11754;42.664;23.594;2023-04-05T12:13:55;95086.63;;;27.47;14.99
23172;BME280;11754;42.664;23.594;2023-04-05T12:16:22;95084.09;;;24.83;17.42
23172;BME280;11754;42.664;23.594;2023-04-05T12:18:58;95084.03;;;23.14;18.70
23172;BME280;11754;42.664;23.594;2023-04-05T12:21:25;95090.22;;;21.88;19.80
23172;BME280;11754;42.664;23.594;2023-04-05T12:23:52;95096.59;;;21.02;21.32
23172;BME280;11754;42.664;23.594;2023-04-05T12:26:18;95088.81;;;19.97;22.13
23172;BME280;11754;42.664;23.594;2023-04-05T12:31:39;95086.59;;;18.08;24.23
23172;BME280;11754;42.664;23.594;2023-04-05T12:34:08;95085.03;;;17.57;25.22
23172;BME280;11754;42.664;23.594;2023-04-05T12:36:34;95070.38;;;17.41;25.81
23172;BME280;11754;42.664;23.594;2023-04-05T12:39:05;95079.84;;;16.80;25.30
23172;BME280;11754;42.664;23.594;2023-04-05T12:41:32;95083.38;;;16.22;27.06
23172;BME280;11754;42.664;23.594;2023-04-05T12:43:58;95082.91;;;16.39;27.07
23172;BME280;11754;42.664;23.594;2023-04-05T12:47:01;95097.06;;;16.26;27.72
23172;BME280;11754;42.664;23.594;2023-04-05T12:49:27;95098.25;;;15.58;27.52
23172;BME280;11754;42.664;23.594;2023-04-05T12:51:53;95095.41;;;15.33;28.60
23172;BME280;11754;42.664;23.594;2023-04-05T12:54:22;95097.84;;;15.02;29.42
23172;BME280;11754;42.664;23.594;2023-04-05T12:56:54;95092.91;;;14.92;29.90
23172;BME280;11754;42.664;23.594;2023-04-05T12:59:20;95088.53;;;14.51;30.58
23172;BME280;11754;42.664;23.594;2023-04-05T13:01:46;95089.50;;;14.37;30.75
23172;BME280;11754;42.664;23.594;2023-04-05T13:04:11;95101.88;;;14.78;31.19
23172;BME280;11754;42.664;23.594;2023-04-05T13:06:37;95097.03;;;15.28;30.09
23172;BME280;11754;42.664;23.594;2023-04-05T13:09:02;95098.81;;;14.81;30.62
23172;BME280;11754;42.664;23.594;2023-04-05T13:11:28;95113.66;;;14.07;30.90
23172;BME280;11754;42.664;23.594;2023-04-05T13:13:53;95106.38;;;13.88;31.75
23172;BME280;11754;42.664;23.594;2023-04-05T13:16:19;95116.34;;;14.21;31.07
23172;BME280;11754;42.664;23.594;2023-04-05T13:18:45;95120.13;;;13.63;30.06
23172;BME280;11754;42.664;23.594;2023-04-05T13:21:10;95112.06;;;14.74;29.36
23172;BME280;11754;42.664;23.594;2023-04-05T13:23:37;95102.75;;;18.31;25.68
23172;BME280;11754;42.664;23.594;2023-04-05T13:26:04;95111.56;;;21.15;22.53
23172;BME280;11754;42.664;23.594;2023-04-05T13:28:30;95104.16;;;22.62;20.22
23172;BME280;11754;42.664;23.594;2023-04-05T13:30:55;95105.13;;;21.45;21.48
23172;BME280;11754;42.664;23.594;2023-04-05T13:33:21;95106.44;;;20.45;21.72
23172;BME280;11754;42.664;23.594;2023-04-05T13:35:46;95100.44;;;19.90;22.92
23172;BME280;11754;42.664;23.594;2023-04-05T13:38:12;95107.09;;;20.00;22.57